Time;durP1;ratioP1;P1;durP2;ratioP2;P2;SDS_P1;SDS_P2;PMS_P1;PMS_P2;Temp;Humidity;BMP_temperature;BMP_pressure;BME280_temperature;BME280_humidity;BME280_pressure;Samples;Min_cycle;Max_cycle;Signal;HPM_P1;HPM_P2
2021/11/29 00:02:45;;;;;;;15.67;12.50;;;4.10;99.90;;;;;;6276569;28;20470;-64
2021/11/29 00:05:49;;;;;;;12.47;11.17;;;4.10;99.90;;;;;;6276678;28;20470;-64
2021/11/29 00:08:52;;;;;;;14.30;12.80;;;4.10;99.90;;;;;;6276305;28;20842;-64
2021/11/29 00:11:55;;;;;;;13.77;12.27;;;4.10;99.90;;;;;;6276102;28;20475;-64
2021/11/29 00:15:00;;;;;;;14.20;12.10;;;4.20;99.90;;;;;;6276545;28;20470;-63
2021/11/29 00:18:03;;;;;;;16.23;14.07;;;4.30;99.90;;;;;;6276482;28;20806;-64
2021/11/29 00:21:06;;;;;;;13.27;11.63;;;4.30;99.90;;;;;;6276056;28;20466;-66
2021/11/29 00:24:11;;;;;;;15.20;12.67;;;4.30;99.90;;;;;;6275850;28;20802;-64
2021/11/29 00:27:15;;;;;;;13.27;10.70;;;4.40;99.90;;;;;;6276118;28;20486;-65
2021/11/29 00:30:19;;;;;;;16.87;12.07;;;4.40;99.90;;;;;;6276118;28;20471;-63
2021/11/29 00:33:23;;;;;;;13.33;11.97;;;4.40;99.90;;;;;;6276557;28;20508;-63
2021/11/29 00:36:26;;;;;;;15.53;13.70;;;4.40;99.90;;;;;;6275678;28;20481;-65
2021/11/29 00:39:30;;;;;;;12.47;11.07;;;4.50;99.90;;;;;;6275423;28;20469;-65
2021/11/29 00:42:33;;;;;;;12.97;11.27;;;4.50;99.90;;;;;;6274516;28;20476;-65
2021/11/29 00:45:37;;;;;;;13.00;11.70;;;4.40;99.90;;;;;;6277967;28;20467;-63
2021/11/29 00:48:41;;;;;;;12.03;10.77;;;4.40;99.90;;;;;;6280538;28;20477;-63
2021/11/29 00:51:44;;;;;;;10.77;9.80;;;4.30;99.90;;;;;;6278602;28;20474;-63
2021/11/29 00:54:47;;;;;;;11.60;10.50;;;4.30;99.90;;;;;;6274484;28;20481;-63
2021/11/29 00:57:50;;;;;;;11.80;10.63;;;4.40;99.90;;;;;;6275248;28;20972;-67
2021/11/29 01:00:56;;;;;;;10.80;9.80;;;4.30;99.90;;;;;;6275940;28;20470;-67
2021/11/29 01:03:59;;;;;;;15.90;11.27;;;4.30;99.90;;;;;;6249462;28;20924;-68
2021/11/29 01:07:03;;;;;;;10.57;9.53;;;4.30;99.90;;;;;;6253977;28;21375;-69
2021/11/29 01:10:09;;;;;;;12.90;9.90;;;4.40;99.90;;;;;;6290037;28;20441;-66
2021/11/29 01:13:12;;;;;;;15.77;10.70;;;4.40;99.90;;;;;;6261053;28;20946;-65
2021/11/29 01:16:16;;;;;;;11.13;9.60;;;4.40;99.90;;;;;;6273512;28;20470;-66
2021/11/29 01:19:20;;;;;;;10.03;9.03;;;4.40;99.90;;;;;;6274079;28;20465;-65
2021/11/29 01:22:23;;;;;;;11.03;9.97;;;4.50;99.90;;;;;;6273763;28;20466;-65
2021/11/29 01:25:27;;;;;;;12.70;11.17;;;4.40;99.90;;;;;;6273453;28;20482;-65
2021/11/29 01:28:30;;;;;;;14.00;10.70;;;4.40;99.90;;;;;;6273672;28;20576;-66
2021/11/29 01:31:35;;;;;;;10.87;9.00;;;4.40;99.90;;;;;;6274181;28;20807;-65
2021/11/29 01:34:38;;;;;;;9.17;8.27;;;4.30;99.90;;;;;;6274663;28;20805;-65
2021/11/29 01:37:41;;;;;;;9.30;8.40;;;4.10;99.90;;;;;;6274960;28;20473;-65
2021/11/29 01:40:44;;;;;;;9.93;8.87;;;4.10;99.90;;;;;;6274224;28;20962;-65
2021/11/29 01:43:48;;;;;;;9.77;8.70;;;4.10;99.90;;;;;;6275275;28;20466;-65
2021/11/29 01:46:53;;;;;;;10.03;8.93;;;4.20;99.90;;;;;;6274917;28;20477;-65
2021/11/29 01:49:56;;;;;;;7.80;7.10;;;4.10;99.90;;;;;;6274891;28;20481;-65
2021/11/29 01:52:59;;;;;;;6.97;6.23;;;4.10;99.90;;;;;;6278273;28;20473;-65
2021/11/29 01:56:02;;;;;;;8.70;6.50;;;4.10;99.90;;;;;;6282210;28;20477;-65
2021/11/29 01:59:07;;;;;;;6.87;6.20;;;4.10;99.90;;;;;;6271472;28;20481;-65
2021/11/29 02:02:13;;;;;;;6.20;5.60;;;4.10;99.90;;;;;;6281508;28;20478;-65
2021/11/29 02:05:16;;;;;;;6.03;5.43;;;4.10;99.90;;;;;;6281965;28;20504;-65
2021/11/29 02:08:20;;;;;;;3.90;3.60;;;4.10;99.90;;;;;;6281580;28;20481;-64
2021/11/29 02:11:24;;;;;;;3.90;3.60;;;4.10;99.90;;;;;;6281209;28;20476;-64
2021/11/29 02:14:27;;;;;;;4.13;3.83;;;4.00;99.90;;;;;;6281450;28;20474;-64
2021/11/29 02:17:32;;;;;;;4.10;3.70;;;4.00;99.90;;;;;;6281044;28;20474;-65
2021/11/29 02:20:37;;;;;;;3.80;3.50;;;4.00;99.90;;;;;;6281803;28;20938;-65
2021/11/29 02:23:43;;;;;;;3.33;3.00;;;4.00;99.90;;;;;;6282383;28;21346;-64
2021/11/29 02:26:46;;;;;;;3.30;3.10;;;4.00;99.90;;;;;;6281059;28;20828;-65
2021/11/29 02:29:53;;;;;;;4.20;3.83;;;4.10;99.90;;;;;;6280942;28;20823;-64
2021/11/29 02:32:56;;;;;;;5.33;4.90;;;4.10;99.90;;;;;;6280967;28;20980;-64
2021/11/29 02:36:00;;;;;;;3.67;3.23;;;4.10;99.90;;;;;;6281656;28;20470;-65
2021/11/29 02:39:05;;;;;;;5.57;2.93;;;4.10;99.90;;;;;;6282779;28;20476;-64
2021/11/29 02:42:11;;;;;;;3.83;3.53;;;4.10;99.90;;;;;;6282878;28;20992;-65
2021/11/29 02:45:17;;;;;;;2.93;2.73;;;4.10;99.90;;;;;;6282572;28;20811;-65
2021/11/29 02:48:20;;;;;;;3.43;3.13;;;4.10;99.90;;;;;;6281555;28;20477;-66
2021/11/29 02:51:27;;;;;;;4.07;3.67;;;4.20;99.90;;;;;;6282298;28;20481;-66
2021/11/29 02:54:32;;;;;;;4.23;3.10;;;4.20;99.90;;;;;;6281988;28;20492;-65
2021/11/29 02:57:35;;;;;;;4.97;3.73;;;4.10;99.90;;;;;;6282367;28;20470;-65
2021/11/29 03:00:38;;;;;;;4.13;3.73;;;4.10;99.90;;;;;;6282877;28;20480;-65
2021/11/29 03:03:49;;;;;;;3.77;3.43;;;4.10;99.90;;;;;;6276909;28;20511;-65
2021/11/29 03:06:54;;;;;;;3.63;3.30;;;4.10;99.90;;;;;;6278626;28;20841;-66
2021/11/29 03:09:57;;;;;;;4.00;3.70;;;4.20;99.90;;;;;;6278186;28;20482;-65
2021/11/29 03:13:00;;;;;;;4.20;3.80;;;4.20;99.90;;;;;;6277648;28;20477;-65
2021/11/29 03:16:04;;;;;;;4.50;3.67;;;4.20;99.90;;;;;;6277545;28;20457;-65
2021/11/29 03:19:07;;;;;;;5.53;3.73;;;4.30;99.90;;;;;;6277339;28;20766;-65
2021/11/29 03:22:13;;;;;;;3.67;3.20;;;4.30;99.90;;;;;;6277248;28;20449;-65
2021/11/29 03:25:16;;;;;;;5.97;4.17;;;4.30;99.90;;;;;;6276904;28;20450;-66
2021/11/29 03:28:20;;;;;;;4.57;4.17;;;4.40;99.90;;;;;;6277769;28;20468;-66
2021/11/29 03:31:24;;;;;;;7.10;3.57;;;4.30;99.90;;;;;;6278288;28;20478;-66
2021/11/29 03:34:27;;;;;;;4.07;3.73;;;4.40;99.90;;;;;;6277612;28;20807;-67
2021/11/29 03:37:32;;;;;;;3.90;3.50;;;4.40;99.90;;;;;;6277246;28;20470;-67
2021/11/29 03:40:36;;;;;;;4.07;3.77;;;4.40;99.90;;;;;;6277742;28;20559;-66
2021/11/29 03:43:39;;;;;;;4.30;3.90;;;4.40;99.90;;;;;;6277682;28;20474;-69
2021/11/29 03:46:45;;;;;;;4.53;4.13;;;4.40;99.90;;;;;;6277109;28;20557;-66
2021/11/29 03:49:49;;;;;;;6.27;5.67;;;4.40;99.90;;;;;;6277317;28;20474;-65
2021/11/29 03:52:53;;;;;;;4.80;4.40;;;4.30;99.90;;;;;;6276918;28;20474;-69
2021/11/29 03:55:57;;;;;;;4.60;4.07;;;4.30;99.90;;;;;;6277814;28;20481;-69
2021/11/29 03:59:00;;;;;;;5.30;4.80;;;4.30;99.90;;;;;;6277455;28;20481;-67
2021/11/29 04:02:03;;;;;;;6.50;5.40;;;4.30;99.90;;;;;;6277164;28;20477;-66
2021/11/29 04:05:07;;;;;;;5.00;4.47;;;4.20;99.90;;;;;;6272720;28;20482;-67
2021/11/29 04:08:12;;;;;;;6.50;5.23;;;4.20;99.90;;;;;;6276850;28;20474;-67
2021/11/29 04:11:15;;;;;;;5.90;5.30;;;4.20;99.90;;;;;;6276891;28;20469;-65
2021/11/29 04:14:19;;;;;;;6.60;6.00;;;4.20;99.90;;;;;;6276631;28;20474;-68
2021/11/29 04:17:22;;;;;;;6.73;6.07;;;4.30;99.90;;;;;;6276874;28;20474;-69
2021/11/29 04:20:25;;;;;;;5.90;5.13;;;4.20;99.90;;;;;;6276259;28;20848;-67
2021/11/29 04:23:30;;;;;;;5.93;5.43;;;4.20;99.90;;;;;;6276774;28;20477;-67
2021/11/29 04:26:33;;;;;;;7.37;6.73;;;4.10;99.90;;;;;;6276292;28;20555;-67
2021/11/29 04:29:40;;;;;;;6.13;5.63;;;4.10;99.90;;;;;;6276532;28;20531;-69
2021/11/29 04:32:43;;;;;;;7.77;7.07;;;4.10;99.90;;;;;;6276326;28;20474;-69
2021/11/29 04:35:46;;;;;;;6.70;5.57;;;4.10;99.90;;;;;;6276282;28;20486;-69
2021/11/29 04:38:51;;;;;;;8.07;7.27;;;4.10;99.90;;;;;;6275748;28;20988;-70
2021/11/29 04:41:54;;;;;;;9.97;8.00;;;4.10;99.90;;;;;;6276539;28;20469;-70
2021/11/29 04:44:58;;;;;;;9.20;8.30;;;4.10;99.90;;;;;;6275670;28;20466;-70
2021/11/29 04:48:01;;;;;;;9.10;7.47;;;4.10;99.90;;;;;;6276105;28;20493;-69
2021/11/29 04:51:04;;;;;;;12.27;9.00;;;4.10;99.90;;;;;;6276149;28;20477;-69
2021/11/29 04:54:09;;;;;;;8.63;7.73;;;4.10;99.90;;;;;;6275607;28;20478;-70
2021/11/29 04:57:13;;;;;;;8.80;6.50;;;4.10;99.90;;;;;;6275194;28;20482;-70
2021/11/29 05:00:19;;;;;;;8.10;6.87;;;4.10;99.90;;;;;;6274300;28;20470;-70
2021/11/29 05:03:23;;;;;;;7.93;7.10;;;3.90;99.90;;;;;;6274510;28;20470;-70
2021/11/29 05:06:26;;;;;;;9.40;8.13;;;3.90;99.90;;;;;;6274163;28;20543;-70
2021/11/29 05:09:30;;;;;;;7.77;7.07;;;3.80;99.90;;;;;;6274405;28;20477;-70
2021/11/29 05:12:34;;;;;;;9.33;7.80;;;3.70;99.90;;;;;;6274820;28;20981;-69
2021/11/29 05:15:37;;;;;;;8.40;7.47;;;3.70;99.90;;;;;;6275176;28;20485;-69
2021/11/29 05:18:41;;;;;;;9.80;8.80;;;3.70;99.90;;;;;;6275407;28;20793;-69
2021/11/29 05:21:44;;;;;;;8.80;7.90;;;3.80;99.90;;;;;;6274893;28;20477;-69
2021/11/29 05:24:48;;;;;;;9.27;8.33;;;3.80;99.90;;;;;;6274662;28;20467;-70
2021/11/29 05:27:51;;;;;;;9.20;8.30;;;3.80;99.90;;;;;;6274317;28;20532;-69
2021/11/29 05:30:54;;;;;;;12.20;7.93;;;3.80;99.90;;;;;;6275277;28;20481;-69
2021/11/29 05:33:58;;;;;;;9.43;8.50;;;3.80;99.90;;;;;;6275282;28;20474;-70
2021/11/29 05:37:01;;;;;;;10.73;7.60;;;3.70;99.90;;;;;;6274996;28;20485;-69
2021/11/29 05:40:07;;;;;;;8.50;7.70;;;3.70;99.90;;;;;;6274538;28;20453;-67
2021/11/29 05:43:18;;;;;;;11.10;7.50;;;3.70;99.90;;;;;;6274912;28;20462;-68
2021/11/29 05:46:22;;;;;;;8.30;7.50;;;3.70;99.90;;;;;;6274588;28;20478;-68
2021/11/29 05:49:26;;;;;;;8.83;8.03;;;3.70;99.90;;;;;;6274665;28;20462;-68
2021/11/29 05:52:29;;;;;;;9.60;8.60;;;3.70;99.90;;;;;;6275041;28;20478;-69
2021/11/29 05:55:34;;;;;;;8.27;7.40;;;3.70;99.90;;;;;;6276095;28;20473;-69
2021/11/29 05:58:37;;;;;;;8.97;8.00;;;3.60;99.90;;;;;;6274510;28;20485;-70
2021/11/29 06:01:40;;;;;;;9.60;8.60;;;3.60;99.90;;;;;;6274007;28;20473;-70
2021/11/29 06:04:43;;;;;;;9.50;8.60;;;3.60;99.90;;;;;;6274131;28;21019;-69
2021/11/29 06:07:47;;;;;;;8.80;7.90;;;3.60;99.90;;;;;;6273534;28;20771;-70
2021/11/29 06:10:51;;;;;;;9.87;8.47;;;3.60;99.90;;;;;;6273778;28;20478;-68
2021/11/29 06:13:54;;;;;;;10.73;9.57;;;3.60;99.90;;;;;;6274151;28;20478;-65
2021/11/29 06:16:58;;;;;;;10.13;9.13;;;3.60;99.90;;;;;;6273369;28;20480;-64
2021/11/29 06:20:01;;;;;;;14.63;9.97;;;3.50;99.90;;;;;;6273785;28;20476;-64
2021/11/29 06:23:04;;;;;;;10.20;9.20;;;3.40;99.90;;;;;;6274251;28;20876;-64
2021/11/29 06:26:09;;;;;;;14.07;10.37;;;3.40;99.90;;;;;;6273817;28;20560;-65
2021/11/29 06:29:13;;;;;;;10.90;9.20;;;3.40;99.90;;;;;;6274456;28;20977;-65
2021/11/29 06:32:16;;;;;;;10.20;9.20;;;3.40;99.90;;;;;;6274252;28;20470;-65
2021/11/29 06:35:20;;;;;;;18.30;13.90;;;3.40;99.90;;;;;;6272573;28;20477;-65
2021/11/29 06:38:25;;;;;;;11.20;10.00;;;3.40;99.90;;;;;;6272654;28;20477;-66
2021/11/29 06:41:30;;;;;;;11.03;9.37;;;3.40;99.90;;;;;;6276668;28;20485;-67
2021/11/29 06:44:33;;;;;;;16.30;11.00;;;3.40;99.90;;;;;;6277789;28;20474;-67
2021/11/29 06:47:37;;;;;;;13.70;10.43;;;3.50;99.90;;;;;;6278119;28;20792;-67
2021/11/29 06:50:40;;;;;;;14.27;10.30;;;3.50;99.90;;;;;;6279641;28;20466;-66
2021/11/29 06:53:44;;;;;;;12.47;10.40;;;3.50;99.90;;;;;;6280827;28;20478;-66
2021/11/29 06:56:49;;;;;;;13.23;11.03;;;3.50;99.90;;;;;;6279901;28;20466;-66
2021/11/29 06:59:52;;;;;;;17.17;10.70;;;3.50;99.90;;;;;;6279997;28;20466;-66
2021/11/29 07:02:56;;;;;;;12.03;10.37;;;3.50;99.90;;;;;;6280535;28;20477;-66
2021/11/29 07:06:01;;;;;;;14.13;10.77;;;3.50;99.90;;;;;;6278885;28;20474;-67
2021/11/29 07:09:05;;;;;;;12.90;11.10;;;3.60;99.90;;;;;;6278587;28;20470;-66
2021/11/29 07:12:10;;;;;;;14.90;12.50;;;3.70;99.90;;;;;;6278391;28;20474;-66
2021/11/29 07:15:14;;;;;;;15.67;11.67;;;3.80;99.90;;;;;;6279308;28;20481;-67
2021/11/29 07:18:17;;;;;;;12.57;10.67;;;3.90;99.90;;;;;;6274643;28;20474;-66
2021/11/29 07:21:20;;;;;;;13.20;10.80;;;4.00;99.90;;;;;;6279104;28;20938;-66
2021/11/29 07:24:24;;;;;;;13.77;10.27;;;4.10;99.90;;;;;;6277679;28;20802;-66
2021/11/29 07:27:28;;;;;;;11.13;9.93;;;4.30;99.90;;;;;;6278624;28;21016;-66
2021/11/29 07:30:32;;;;;;;11.77;10.63;;;4.40;99.90;;;;;;6279032;28;20484;-66
2021/11/29 07:33:35;;;;;;;11.73;10.50;;;4.40;99.90;;;;;;6278997;28;20485;-66
2021/11/29 07:36:38;;;;;;;14.70;12.53;;;4.40;99.90;;;;;;6278745;28;20489;-66
2021/11/29 07:39:42;;;;;;;14.40;12.90;;;4.40;99.90;;;;;;6278397;28;20485;-66
2021/11/29 07:42:48;;;;;;;15.80;12.30;;;4.60;99.90;;;;;;6278301;28;20489;-66
2021/11/29 07:45:51;;;;;;;12.73;10.40;;;4.90;99.90;;;;;;6278341;28;20474;-66
2021/11/29 07:48:55;;;;;;;10.80;9.10;;;5.10;99.90;;;;;;6278403;28;21038;-66
2021/11/29 07:51:59;;;;;;;13.63;11.13;;;5.10;99.90;;;;;;6286064;28;20901;-66
2021/11/29 07:55:11;;;;;;;14.40;11.30;;;5.10;99.90;;;;;;6302864;28;20468;-67
2021/11/29 07:58:17;;;;;;;12.13;10.10;;;5.10;99.90;;;;;;6302163;28;20734;-67
2021/11/29 08:01:20;;;;;;;16.30;13.60;;;5.00;99.90;;;;;;6302495;28;20453;-66
2021/11/29 08:04:23;;;;;;;15.33;11.27;;;5.00;99.90;;;;;;6302597;28;20623;-67
2021/11/29 08:07:26;;;;;;;14.00;12.33;;;5.10;99.90;;;;;;6293127;28;20471;-67
2021/11/29 08:10:33;;;;;;;13.23;11.57;;;5.30;99.90;;;;;;6257151;28;20528;-66
2021/11/29 08:13:38;;;;;;;16.93;11.03;;;5.60;99.90;;;;;;6277034;28;20473;-67
2021/11/29 08:16:41;;;;;;;13.03;11.37;;;5.70;99.90;;;;;;6277431;28;20470;-67
2021/11/29 08:19:45;;;;;;;17.40;12.67;;;5.60;99.90;;;;;;6277677;28;20499;-67
2021/11/29 08:22:48;;;;;;;12.60;10.70;;;5.50;99.90;;;;;;6277085;28;20986;-67
2021/11/29 08:25:51;;;;;;;13.83;12.03;;;5.40;99.90;;;;;;6280559;28;20474;-67
2021/11/29 08:28:56;;;;;;;14.63;11.17;;;5.30;99.90;;;;;;6275466;28;20489;-67
2021/11/29 08:32:01;;;;;;;29.37;13.37;;;5.30;99.90;;;;;;6278569;28;21000;-67
2021/11/29 08:35:05;;;;;;;14.97;11.47;;;5.30;99.90;;;;;;6275442;28;20478;-65
2021/11/29 08:38:09;;;;;;;15.17;11.27;;;5.30;99.90;;;;;;6123781;22;20475;-65
2021/11/29 08:41:12;;;;;;;21.60;13.60;;;5.30;99.90;;;;;;6080030;28;20477;-65
2021/11/29 08:44:16;;;;;;;12.90;11.60;;;5.60;99.90;;;;;;6080097;28;20481;-65
2021/11/29 08:47:20;;;;;;;13.47;11.67;;;5.60;99.90;;;;;;6173714;28;20483;-65
2021/11/29 08:50:23;;;;;;;30.57;12.40;;;5.80;99.90;;;;;;6226741;28;20471;-65
2021/11/29 08:53:37;;;;;;;26.10;13.07;;;6.10;99.90;;;;;;6139008;28;20482;-65
2021/11/29 08:56:40;;;;;;;13.13;11.67;;;6.40;99.90;;;;;;6127347;28;20541;-67
2021/11/29 08:59:45;;;;;;;14.47;11.60;;;6.90;99.90;;;;;;6126631;28;20971;-67
2021/11/29 09:02:49;;;;;;;13.90;11.97;;;7.10;99.90;;;;;;6136441;28;20484;-66
2021/11/29 09:05:59;;;;;;;15.10;12.37;;;7.20;99.90;;;;;;6225938;28;20465;-67
2021/11/29 09:09:02;;;;;;;19.77;11.30;;;7.10;99.90;;;;;;6136768;28;20480;-67
2021/11/29 09:12:06;;;;;;;28.43;12.90;;;6.90;99.90;;;;;;6102982;28;20489;-66
2021/11/29 09:15:14;;;;;;;18.53;12.00;;;6.70;99.90;;;;;;6102452;28;20491;-68
2021/11/29 09:18:17;;;;;;;13.77;10.87;;;6.60;99.90;;;;;;6102884;28;20472;-64
2021/11/29 09:21:23;;;;;;;25.23;12.03;;;6.40;99.90;;;;;;6102998;28;20991;-66
2021/11/29 09:24:26;;;;;;;13.90;11.60;;;6.30;99.90;;;;;;6102865;28;20472;-66
2021/11/29 09:27:29;;;;;;;16.27;12.27;;;6.30;99.90;;;;;;6093588;28;20485;-66
2021/11/29 09:30:34;;;;;;;16.47;13.87;;;6.20;99.90;;;;;;6102384;28;20495;-65
2021/11/29 09:33:38;;;;;;;16.20;12.67;;;6.20;99.90;;;;;;6081796;28;20490;-67
2021/11/29 09:36:41;;;;;;;20.90;14.10;;;6.20;99.90;;;;;;6100452;28;20484;-68
2021/11/29 09:39:45;;;;;;;14.27;12.83;;;6.10;99.90;;;;;;6102677;28;20961;-65
2021/11/29 09:42:49;;;;;;;17.53;13.40;;;6.10;99.90;;;;;;6102498;28;20485;-67
2021/11/29 09:45:54;;;;;;;14.13;12.67;;;6.10;99.90;;;;;;6102433;28;20811;-66
2021/11/29 09:48:58;;;;;;;13.97;12.40;;;6.20;99.90;;;;;;6102223;28;20536;-65
2021/11/29 09:52:07;;;;;;;13.80;12.10;;;6.20;99.90;;;;;;6101332;28;20447;-64
2021/11/29 09:55:14;;;;;;;14.57;11.40;;;6.20;99.90;;;;;;6125117;28;20466;-65
2021/11/29 09:58:17;;;;;;;18.27;12.67;;;6.20;99.90;;;;;;6126067;28;20416;-65
2021/11/29 10:01:22;;;;;;;13.03;11.20;;;6.20;99.90;;;;;;6125413;28;20459;-65
2021/11/29 10:04:47;;;;;;;13.97;12.47;;;6.30;99.90;;;;;;6160247;28;20499;-63
2021/11/29 10:07:52;;;;;;;13.33;11.70;;;6.50;99.90;;;;;;6185132;28;20814;-63
2021/11/29 10:10:57;;;;;;;14.10;11.90;;;6.50;99.90;;;;;;6101644;28;20480;-63
2021/11/29 10:14:02;;;;;;;12.90;11.60;;;6.70;99.90;;;;;;6103898;28;20464;-63
2021/11/29 10:17:07;;;;;;;14.83;12.10;;;6.90;99.90;;;;;;6105920;28;20472;-66
2021/11/29 10:20:10;;;;;;;13.43;9.93;;;7.20;99.90;;;;;;6105912;28;20473;-63
2021/11/29 10:23:14;;;;;;;11.57;9.67;;;7.40;99.90;;;;;;6116477;28;20472;-63
2021/11/29 10:26:21;;;;;;;58.80;14.10;;;7.70;99.90;;;;;;6108097;28;20630;-63
2021/11/29 10:29:26;;;;;;;19.37;10.80;;;8.00;99.90;;;;;;6105752;28;20491;-63
2021/11/29 10:32:32;;;;;;;17.73;9.83;;;8.20;99.30;;;;;;6105554;28;20468;-62
2021/11/29 10:35:37;;;;;;;14.93;10.37;;;8.40;99.10;;;;;;6092397;28;20485;-63
2021/11/29 10:38:40;;;;;;;10.67;9.27;;;8.30;99.00;;;;;;6166418;28;20467;-63
2021/11/29 10:41:45;;;;;;;12.47;9.30;;;8.30;98.80;;;;;;6229278;28;20468;-64
2021/11/29 10:44:50;;;;;;;41.17;12.53;;;8.10;98.80;;;;;;6229018;28;20475;-65
2021/11/29 10:47:56;;;;;;;25.13;11.00;;;8.20;98.80;;;;;;6236649;28;20481;-67
2021/11/29 10:51:09;;;;;;;19.77;9.50;;;8.30;99.00;;;;;;6244998;28;20476;-64
2021/11/29 10:54:15;;;;;;;11.50;9.60;;;8.40;99.30;;;;;;6229189;28;20488;-66
2021/11/29 10:57:19;;;;;;;17.53;8.73;;;8.90;98.80;;;;;;6228941;28;20491;-66
2021/11/29 11:00:23;;;;;;;12.53;8.70;;;9.40;97.70;;;;;;6228937;28;20482;-65
2021/11/29 11:03:28;;;;;;;18.63;8.30;;;9.90;95.40;;;;;;6229098;28;20487;-66
2021/11/29 11:06:33;;;;;;;10.30;7.17;;;12.50;94.30;;;;;;6228782;28;20482;-66
2021/11/29 11:09:39;;;;;;;17.40;8.50;;;14.80;79.60;;;;;;6228941;28;20764;-66
2021/11/29 11:12:43;;;;;;;9.17;7.20;;;14.40;74.30;;;;;;6228924;28;20979;-67
2021/11/29 11:15:46;;;;;;;6.80;6.10;;;13.70;74.10;;;;;;6228683;28;20480;-64
2021/11/29 11:18:50;;;;;;;6.90;6.20;;;13.10;73.60;;;;;;6228451;28;20840;-67
2021/11/29 11:21:55;;;;;;;5.83;5.23;;;12.50;75.70;;;;;;6227332;28;20480;-67
2021/11/29 11:25:03;;;;;;;2.80;2.60;;;11.90;73.70;;;;;;6226490;28;20460;-67
2021/11/29 11:28:08;;;;;;;2.57;2.37;;;12.00;72.70;;;;;;6226813;28;20479;-67
2021/11/29 11:31:25;;;;;;;4.00;2.20;;;16.00;61.70;;;;;;6227062;28;20876;-68
2021/11/29 11:34:34;;;;;;;3.00;1.87;;;18.70;50.80;;;;;;6226772;28;20964;-68
2021/11/29 11:37:40;;;;;;;2.10;1.50;;;18.40;45.70;;;;;;6228809;28;20530;-67
2021/11/29 11:40:46;;;;;;;3.13;2.20;;;17.30;46.10;;;;;;6229629;28;20479;-68
2021/11/29 11:43:49;;;;;;;1.83;1.73;;;16.50;50.00;;;;;;6228948;28;20490;-66
2021/11/29 11:46:55;;;;;;;3.23;1.93;;;18.60;49.10;;;;;;6227780;28;20483;-66
2021/11/29 11:50:00;;;;;;;4.00;1.90;;;19.10;42.00;;;;;;6228014;28;20475;-67
2021/11/29 11:53:05;;;;;;;2.77;1.93;;;17.30;41.40;;;;;;6228129;28;20468;-66
2021/11/29 11:56:08;;;;;;;2.70;2.03;;;15.80;45.90;;;;;;6227580;28;20472;-67
2021/11/29 11:59:14;;;;;;;6.10;2.27;;;14.60;48.20;;;;;;6227669;28;20975;-67
2021/11/29 12:02:21;;;;;;;2.93;2.23;;;13.70;51.00;;;;;;6227553;28;20475;-64
2021/11/29 12:05:28;;;;;;;4.73;1.70;;;12.80;52.40;;;;;;6227374;28;20539;-65
2021/11/29 12:08:38;;;;;;;3.70;1.90;;;12.10;52.90;;;;;;6227308;28;20475;-67
2021/11/29 12:11:45;;;;;;;2.47;2.27;;;11.60;54.80;;;;;;6227347;28;20801;-64
2021/11/29 12:14:48;;;;;;;14.10;3.37;;;14.00;53.70;;;;;;6227544;28;20467;-64
2021/11/29 12:17:52;;;;;;;3.40;1.73;;;15.30;48.40;;;;;;6227239;28;20491;-66
2021/11/29 12:21:18;;;;;;;1.83;1.40;;;17.80;46.60;;;;;;6227138;28;20490;-66
2021/11/29 12:24:25;;;;;;;7.50;2.37;;;20.80;37.40;;;;;;6227254;28;20479;-64
2021/11/29 12:27:42;;;;;;;2.47;1.43;;;23.50;31.50;;;;;;6227086;28;20585;-66
2021/11/29 12:30:46;;;;;;;1.83;1.63;;;24.90;28.40;;;;;;6226533;28;20237;-64
2021/11/29 12:33:50;;;;;;;1.93;1.80;;;26.10;27.70;;;;;;6226628;28;20572;-64
2021/11/29 12:37:14;;;;;;;6.30;1.83;;;27.50;25.90;;;;;;6225860;28;20672;-64
2021/11/29 12:40:19;;;;;;;2.43;1.70;;;27.90;22.70;;;;;;6226802;28;20649;-64
2021/11/29 12:43:38;;;;;;;40.27;5.07;;;28.00;22.20;;;;;;6226405;28;20684;-64
2021/11/29 12:46:42;;;;;;;2.03;1.40;;;27.30;22.30;;;;;;6226226;28;20582;-64
2021/11/29 12:49:46;;;;;;;4.60;1.67;;;27.40;22.80;;;;;;6226506;28;20224;-64
2021/11/29 12:52:51;;;;;;;1.93;1.17;;;28.00;22.10;;;;;;6226193;28;20224;-65
2021/11/29 12:55:55;;;;;;;1.30;1.20;;;28.20;22.10;;;;;;6224267;28;20567;-64
2021/11/29 12:59:04;;;;;;;1.63;1.13;;;28.10;21.90;;;;;;6225672;28;20228;-64
2021/11/29 13:02:43;;;;;;;2.00;1.00;;;28.30;21.00;;;;;;6225891;28;20290;-67
2021/11/29 13:05:52;;;;;;;10.93;2.87;;;28.50;21.00;;;;;;6225839;28;20240;-65
2021/11/29 13:09:11;;;;;;;1.77;1.43;;;28.20;20.10;;;;;;6225905;28;20224;-65
2021/11/29 13:12:21;;;;;;;1.10;1.00;;;27.00;21.20;;;;;;6225666;28;20229;-65
2021/11/29 13:15:28;;;;;;;1.90;1.23;;;25.70;21.80;;;;;;6225459;28;20233;-64
2021/11/29 13:18:57;;;;;;;1.53;1.43;;;25.00;22.30;;;;;;6225791;28;20246;-64
2021/11/29 13:22:02;;;;;;;2.30;1.30;;;24.00;23.00;;;;;;6226159;28;20654;-66
2021/11/29 13:25:10;;;;;;;1.50;1.30;;;23.40;26.20;;;;;;6225022;28;20205;-64
2021/11/29 13:28:13;;;;;;;2.03;1.20;;;22.70;24.40;;;;;;6224275;28;20201;-64
2021/11/29 13:31:24;;;;;;;1.40;1.30;;;21.90;24.30;;;;;;6224438;28;20224;-65
2021/11/29 13:34:32;;;;;;;1.10;1.00;;;21.20;26.00;;;;;;6224084;28;20235;-67
2021/11/29 13:37:38;;;;;;;0.93;0.90;;;20.50;26.30;;;;;;6215907;28;20236;-68
2021/11/29 13:40:43;;;;;;;1.50;0.87;;;20.00;26.60;;;;;;6195570;28;20857;-67
2021/11/29 13:43:47;;;;;;;1.13;1.03;;;19.30;27.40;;;;;;6200070;28;20743;-68
2021/11/29 13:47:02;;;;;;;1.10;1.00;;;18.80;28.00;;;;;;6200211;28;20480;-68
2021/11/29 13:50:13;;;;;;;1.37;1.20;;;18.80;28.60;;;;;;6199622;28;20533;-69
2021/11/29 13:53:19;;;;;;;1.20;1.07;;;19.70;28.10;;;;;;6218947;28;20472;-67
2021/11/29 13:56:25;;;;;;;1.30;1.20;;;20.90;27.30;;;;;;6225422;28;20280;-68
2021/11/29 13:59:28;;;;;;;1.17;1.07;;;21.90;26.30;;;;;;6225850;28;20314;-68
2021/11/29 14:02:32;;;;;;;1.67;0.97;;;22.40;25.40;;;;;;6225430;28;20235;-70
2021/11/29 14:05:38;;;;;;;1.53;1.00;;;21.70;25.10;;;;;;6224895;28;20233;-66
2021/11/29 14:08:44;;;;;;;4.00;1.17;;;20.70;25.80;;;;;;6224650;28;20228;-67
2021/11/29 14:11:48;;;;;;;1.27;1.17;;;19.60;27.00;;;;;;6225220;28;20237;-67
2021/11/29 14:15:01;;;;;;;1.83;1.73;;;18.60;27.90;;;;;;6223330;28;20477;-67
2021/11/29 14:18:05;;;;;;;1.50;1.40;;;17.30;28.40;;;;;;6224508;28;20476;-67
2021/11/29 14:21:10;;;;;;;4.17;1.60;;;16.10;30.40;;;;;;6224844;28;20472;-66
2021/11/29 14:24:15;;;;;;;1.40;1.30;;;14.90;32.00;;;;;;6224724;28;20562;-66
2021/11/29 14:27:23;;;;;;;1.50;1.40;;;13.90;33.00;;;;;;6224458;28;20491;-67
2021/11/29 14:30:30;;;;;;;2.43;1.50;;;13.00;33.60;;;;;;6225171;28;20487;-67
2021/11/29 14:33:36;;;;;;;9.53;8.60;;;12.10;35.60;;;;;;6224438;28;20796;-66
2021/11/29 14:36:43;;;;;;;2.50;2.30;;;11.30;37.90;;;;;;6224093;28;20819;-65
2021/11/29 14:39:48;;;;;;;2.57;2.37;;;10.60;38.90;;;;;;6224493;28;20480;-64
2021/11/29 14:42:54;;;;;;;2.07;1.50;;;10.00;40.80;;;;;;6224504;28;20491;-67
2021/11/29 14:45:58;;;;;;;4.60;2.13;;;9.60;42.00;;;;;;6224701;28;20480;-66
2021/11/29 14:49:13;;;;;;;2.27;1.97;;;9.20;42.90;;;;;;6221495;28;20474;-65
2021/11/29 14:52:18;;;;;;;2.30;2.13;;;8.90;43.60;;;;;;6224442;28;20444;-65
2021/11/29 14:55:22;;;;;;;1.90;1.70;;;8.50;43.80;;;;;;6224377;28;20456;-66
2021/11/29 14:58:29;;;;;;;2.67;2.40;;;8.20;44.80;;;;;;6224727;28;20463;-66
2021/11/29 15:01:32;;;;;;;2.07;1.80;;;7.90;45.60;;;;;;6227198;28;20482;-67
2021/11/29 15:04:40;;;;;;;2.40;1.63;;;7.70;46.70;;;;;;6229535;28;20472;-66
2021/11/29 15:07:46;;;;;;;1.83;1.57;;;7.50;47.70;;;;;;6231127;28;20555;-66
2021/11/29 15:11:01;;;;;;;2.13;2.00;;;7.40;48.00;;;;;;6232806;28;20475;-66
2021/11/29 15:14:13;;;;;;;3.37;3.00;;;7.20;48.30;;;;;;6231930;28;20495;-69
2021/11/29 15:17:20;;;;;;;3.87;1.97;;;7.10;50.70;;;;;;6219576;28;20620;-67
2021/11/29 15:20:26;;;;;;;3.10;2.30;;;6.90;51.50;;;;;;6205074;28;20464;-68
2021/11/29 15:23:30;;;;;;;2.50;1.83;;;6.80;52.20;;;;;;6211952;28;20468;-66
2021/11/29 15:26:35;;;;;;;2.20;2.00;;;6.70;53.50;;;;;;6232777;28;20813;-65
2021/11/29 15:29:40;;;;;;;7.00;5.20;;;6.50;54.20;;;;;;6237491;28;20479;-65
2021/11/29 15:32:45;;;;;;;13.43;10.73;;;6.50;55.50;;;;;;6231521;28;20792;-68
2021/11/29 15:35:51;;;;;;;11.67;9.50;;;6.40;56.00;;;;;;6227729;28;20547;-67
2021/11/29 15:38:55;;;;;;;9.17;7.63;;;6.40;56.60;;;;;;6228922;28;20537;-67
2021/11/29 15:41:58;;;;;;;7.93;5.27;;;6.30;57.60;;;;;;6230493;28;20471;-67
2021/11/29 15:45:11;;;;;;;7.33;6.63;;;6.20;58.40;;;;;;6231946;28;20464;-67
2021/11/29 15:48:20;;;;;;;6.90;5.77;;;6.10;60.40;;;;;;6230144;28;20471;-66
2021/11/29 15:51:26;;;;;;;7.07;6.10;;;6.00;62.10;;;;;;6229438;28;20976;-67
2021/11/29 15:54:29;;;;;;;6.37;5.70;;;5.90;62.90;;;;;;6230216;28;20482;-68
2021/11/29 15:57:34;;;;;;;5.40;4.87;;;5.90;64.10;;;;;;6230099;28;20793;-67
2021/11/29 16:00:38;;;;;;;9.10;6.87;;;5.80;65.30;;;;;;6228299;28;20829;-63
2021/11/29 16:03:44;;;;;;;8.37;7.50;;;5.70;66.70;;;;;;6227793;28;20483;-64
2021/11/29 16:06:47;;;;;;;9.37;7.47;;;5.60;68.10;;;;;;6226349;28;20484;-63